createdAt,value
2023-03-16T05:53:19.980Z,80.75
2023-03-16T05:56:04.511Z,81.03
2023-03-16T05:58:52.972Z,81.92
2023-03-16T06:01:37.654Z,82.15
2023-03-16T06:04:21.994Z,82.14
2023-03-16T06:07:06.347Z,81.58
2023-03-16T06:09:50.859Z,81.48
2023-03-16T06:12:34.659Z,81.06
2023-03-16T06:15:18.885Z,82.15
2023-03-16T06:18:02.885Z,81.77
2023-03-16T06:20:47.350Z,82.33
2023-03-16T06:23:31.360Z,82.98
2023-03-16T06:26:15.441Z,82.62
2023-03-16T06:29:01.864Z,83.21
2023-03-16T06:31:46.220Z,83.65
2023-03-16T06:34:29.922Z,83.51
2023-03-16T06:37:14.613Z,84.68
2023-03-16T06:39:58.111Z,84.44
2023-03-16T06:42:42.080Z,84.72
2023-03-16T06:45:28.461Z,83.84
2023-03-16T06:48:13.480Z,82.69
2023-03-16T06:50:57.023Z,82.94
2023-03-16T06:53:43.577Z,83.19
2023-03-16T06:56:27.991Z,82.76
2023-03-16T06:59:12.641Z,82.18
2023-03-16T07:01:56.184Z,81.49
2023-03-16T07:04:40.522Z,82.11
2023-03-16T07:07:24.609Z,82.32
2023-03-16T07:10:13.444Z,82.90
2023-03-16T07:12:56.912Z,82.38
2023-03-16T07:15:40.361Z,81.26
2023-03-16T07:18:26.127Z,82.13
2023-03-16T07:21:11.213Z,81.61
2023-03-16T07:23:56.003Z,81.77
2023-03-16T07:26:44.805Z,81.85
2023-03-16T07:29:34.806Z,81.67
2023-03-16T07:32:20.468Z,81.77
2023-03-16T07:35:04.793Z,82.20
2023-03-16T07:37:49.653Z,81.48
2023-03-16T07:40:34.804Z,80.82
2023-03-16T07:43:25.794Z,80.00
2023-03-16T07:46:14.904Z,79.67
2023-03-16T07:48:58.595Z,79.21
2023-03-16T07:51:43.569Z,79.46
2023-03-16T07:54:27.776Z,79.34
2023-03-16T07:57:11.972Z,78.67
2023-03-16T07:59:59.283Z,78.27
2023-03-16T08:02:43.238Z,77.76
2023-03-16T08:05:29.307Z,76.23
2023-03-16T08:08:17.989Z,75.81
2023-03-16T08:11:01.899Z,75.72
2023-03-16T08:13:57.692Z,75.68
2023-03-16T08:16:47.816Z,73.75
2023-03-16T08:19:32.558Z,73.14
2023-03-16T08:22:17.728Z,73.67
2023-03-16T08:25:12.384Z,72.58
2023-03-16T08:28:02.311Z,71.35
2023-03-16T08:30:48.486Z,71.40
2023-03-16T08:34:02.906Z,70.47
2023-03-16T08:36:56.079Z,69.37
2023-03-16T08:53:50.557Z,65.65
2023-03-16T08:56:34.164Z,65.00
2023-03-16T08:59:29.113Z,64.72
2023-03-16T09:02:14.659Z,63.83
2023-03-16T09:04:59.007Z,63.78
2023-03-16T09:07:43.715Z,63.21
2023-03-16T09:10:27.853Z,60.86
2023-03-16T09:13:11.997Z,62.29
2023-03-16T09:15:56.591Z,60.56
2023-03-16T09:59:30.531Z,54.51
2023-03-16T10:03:13.331Z,53.18
2023-03-16T10:06:02.253Z,53.00
2023-03-16T10:12:42.003Z,52.05
2023-03-16T10:23:35.769Z,47.64
2023-03-16T10:26:28.664Z,50.76
2023-03-16T10:29:14.651Z,48.31
2023-03-16T10:32:19.613Z,49.16
2023-03-16T10:35:20.816Z,49.09
2023-03-16T10:38:04.409Z,46.72
2023-03-16T10:40:47.821Z,48.66
2023-03-16T10:43:32.252Z,48.52
2023-03-16T10:46:15.778Z,46.49
2023-03-16T10:49:01.379Z,46.61
2023-03-16T10:51:46.001Z,45.54
2023-03-16T10:54:35.431Z,43.63
2023-03-16T10:57:27.658Z,43.84
2023-03-16T11:00:13.029Z,46.37
2023-03-16T11:03:00.096Z,46.19
2023-03-16T11:05:45.067Z,45.32
2023-03-16T11:08:34.608Z,44.46
2023-03-16T11:11:31.081Z,43.25
2023-03-16T11:14:18.284Z,43.32
2023-03-16T11:17:17.796Z,40.35
2023-03-16T11:20:14.845Z,41.67
2023-03-16T11:23:00.584Z,42.10
2023-03-16T11:25:53.423Z,40.61
2023-03-16T11:28:43.528Z,42.71
2023-03-16T11:31:43.110Z,43.16
2023-03-16T11:34:33.317Z,42.29
2023-03-16T11:37:57.868Z,42.06
2023-03-16T11:40:53.985Z,40.92
2023-03-16T11:43:51.978Z,40.87
2023-03-16T11:47:40.852Z,41.52
2023-03-16T11:50:58.766Z,41.95
2023-03-16T11:54:02.860Z,38.16
2023-03-16T11:56:58.152Z,40.49
2023-03-16T12:00:07.530Z,40.12
2023-03-16T12:03:20.058Z,38.11
2023-03-16T12:06:35.615Z,38.46
2023-03-16T12:09:52.862Z,35.15
2023-03-16T12:12:48.904Z,36.41
2023-03-16T12:15:38.581Z,35.68
2023-03-16T12:18:30.325Z,38.07
2023-03-16T12:25:43.843Z,36.50
2023-03-16T12:28:29.974Z,37.98
2023-03-16T12:31:23.716Z,37.85
2023-03-16T12:34:27.644Z,38.64
2023-03-16T12:37:18.799Z,38.95
2023-03-16T12:40:17.156Z,39.37
2023-03-16T12:43:31.417Z,39.65
2023-03-16T12:46:41.850Z,38.29
2023-03-16T12:49:28.784Z,38.93
2023-03-16T12:52:14.555Z,38.74
2023-03-16T12:55:44.390Z,38.23
2023-03-16T12:58:28.146Z,39.85
2023-03-16T13:01:15.394Z,38.08
2023-03-16T13:11:57.059Z,37.65
2023-03-16T13:14:44.839Z,36.26
2023-03-16T13:17:34.378Z,36.28
2023-03-16T13:20:31.784Z,37.02
2023-03-16T13:23:18.439Z,38.09
2023-03-16T13:26:18.772Z,37.81
2023-03-16T13:29:28.204Z,38.22
2023-03-16T13:32:21.557Z,37.70
2023-03-16T13:35:09.972Z,37.01
2023-03-16T13:37:54.711Z,35.53
2023-03-16T13:49:26.229Z,33.41
2023-03-16T13:52:27.741Z,32.18
2023-03-16T13:55:22.277Z,32.04
2023-03-16T13:58:06.965Z,30.90
2023-03-16T14:00:55.190Z,32.84
2023-03-16T14:03:42.319Z,33.85
2023-03-16T14:06:30.495Z,32.00
2023-03-16T14:09:21.728Z,33.63
2023-03-16T14:12:05.587Z,34.25
2023-03-16T14:14:55.818Z,33.90
2023-03-16T14:17:43.371Z,34.09
2023-03-16T14:20:26.801Z,33.74
2023-03-16T14:23:34.462Z,34.92
2023-03-16T14:26:19.873Z,31.36
2023-03-16T14:29:43.518Z,32.21
2023-03-16T14:32:31.287Z,30.90
2023-03-16T14:35:21.955Z,29.87
2023-03-16T14:38:37.064Z,32.34
2023-03-16T14:41:31.475Z,33.09
2023-03-16T14:44:24.843Z,33.54
2023-03-16T14:47:08.665Z,32.87
2023-03-16T14:49:53.333Z,33.31
2023-03-16T14:52:37.193Z,33.72
2023-03-16T14:55:22.870Z,31.78
2023-03-16T14:58:06.827Z,32.18
2023-03-16T15:00:53.789Z,32.54
2023-03-16T15:03:38.055Z,33.53
2023-03-16T15:06:21.745Z,32.36
2023-03-16T15:09:05.212Z,32.84
2023-03-16T15:11:48.597Z,32.40
2023-03-16T15:14:52.765Z,32.74
2023-03-16T15:17:36.560Z,32.68
2023-03-16T15:20:35.241Z,32.03
2023-03-16T15:23:18.673Z,31.90
2023-03-16T15:26:03.028Z,31.63
2023-03-16T15:28:46.475Z,32.04
2023-03-16T15:31:30.013Z,32.92
2023-03-16T15:34:13.570Z,32.25
2023-03-16T15:36:57.048Z,31.84
2023-03-16T15:39:40.632Z,32.36
2023-03-16T15:42:25.972Z,31.93
2023-03-16T15:45:14.413Z,32.11
2023-03-16T15:47:58.268Z,30.48
2023-03-16T15:50:52.330Z,31.07
2023-03-16T15:53:50.250Z,30.38
2023-03-16T15:56:53.794Z,32.81
2023-03-16T15:59:38.025Z,32.19
2023-03-16T16:02:30.178Z,32.84
2023-03-16T16:05:13.646Z,32.54
2023-03-16T16:07:57.511Z,31.00
2023-03-16T16:10:42.997Z,33.05
2023-03-16T16:13:43.492Z,33.11
2023-03-16T16:16:30.450Z,33.69
2023-03-16T16:19:15.639Z,34.50
2023-03-16T16:21:59.484Z,33.79
2023-03-16T16:24:42.959Z,34.00
2023-03-16T16:27:27.161Z,34.80
2023-03-16T16:30:26.209Z,34.38
2023-03-16T16:33:27.317Z,32.96
2023-03-16T16:36:19.123Z,34.40
2023-03-16T16:39:03.005Z,34.57
2023-03-16T16:41:50.825Z,34.01
2023-03-16T16:44:37.529Z,35.38
2023-03-16T16:47:22.532Z,34.90
2023-03-16T16:50:27.611Z,35.77
2023-03-16T16:53:23.607Z,34.46
2023-03-16T16:56:14.117Z,35.52
2023-03-16T16:59:01.705Z,34.06
2023-03-16T17:01:47.402Z,34.10
2023-03-16T17:04:30.894Z,35.61
2023-03-16T17:07:14.351Z,35.95
2023-03-16T17:09:57.777Z,36.98
2023-03-16T17:12:42.014Z,36.43
2023-03-16T17:15:30.131Z,36.94
2023-03-16T17:18:14.911Z,37.34
2023-03-16T17:20:59.060Z,37.85
2023-03-16T17:23:42.770Z,37.36
2023-03-16T17:26:34.469Z,39.06
2023-03-16T17:29:27.837Z,38.26
2023-03-16T17:32:22.961Z,38.81
2023-03-16T17:35:16.104Z,38.01
2023-03-16T17:37:59.597Z,40.13
2023-03-16T17:40:43.667Z,38.79
2023-03-16T17:43:31.837Z,38.25
2023-03-16T17:46:20.397Z,38.59
2023-03-16T17:49:13.660Z,38.67
2023-03-16T19:08:25.238Z,41.31
2023-03-16T19:11:13.261Z,41.43
2023-03-16T19:13:57.005Z,40.71
2023-03-16T19:16:40.424Z,41.24
2023-03-16T19:19:25.890Z,41.32
2023-03-16T19:22:18.695Z,41.99
2023-03-16T19:25:03.163Z,41.33
2023-03-16T19:27:47.656Z,41.57
2023-03-16T19:30:33.641Z,41.49
2023-03-16T19:33:25.863Z,41.75
2023-03-16T19:36:25.437Z,41.38
2023-03-16T19:39:14.045Z,41.92
2023-03-16T19:41:59.646Z,42.13
2023-03-16T19:44:49.968Z,43.40
2023-03-16T19:47:35.337Z,42.37
2023-03-16T19:50:26.272Z,43.11
2023-03-16T19:53:20.855Z,42.79
2023-03-16T19:56:05.112Z,42.80
2023-03-16T19:58:53.727Z,42.93
2023-03-16T20:01:37.261Z,43.20
2023-03-16T20:04:25.173Z,43.06
2023-03-16T20:07:19.337Z,43.10
2023-03-16T20:10:02.933Z,43.70
2023-03-16T20:12:48.469Z,42.66
2023-03-16T20:15:33.876Z,43.82
2023-03-16T20:18:19.020Z,43.96
2023-03-16T20:21:02.470Z,44.52
2023-03-16T20:23:46.261Z,43.95
2023-03-16T20:26:32.905Z,44.44
2023-03-16T20:29:33.244Z,44.68
2023-03-16T20:32:33.065Z,45.04
2023-03-16T20:35:28.483Z,44.91
2023-03-16T20:38:14.529Z,45.16
2023-03-16T20:40:58.209Z,45.75
2023-03-16T20:43:42.464Z,45.59
2023-03-16T20:46:30.966Z,45.47
2023-03-16T20:49:25.347Z,45.34
2023-03-16T20:52:22.150Z,45.29
2023-03-16T20:55:13.028Z,45.74
2023-03-16T20:57:57.636Z,46.90
2023-03-16T21:00:41.122Z,46.21
2023-03-16T21:03:29.256Z,46.21
2023-03-16T21:06:28.572Z,46.90
2023-03-16T21:09:12.072Z,46.26
2023-03-16T21:11:55.672Z,47.06
2023-03-16T21:14:39.862Z,46.72
2023-03-16T21:17:39.209Z,47.03
2023-03-16T21:20:23.476Z,46.75
2023-03-16T21:23:18.480Z,47.13
2023-03-16T21:26:03.900Z,47.99
2023-03-16T21:28:59.063Z,47.92
2023-03-16T21:31:42.709Z,47.74
2023-03-16T21:34:33.962Z,48.71
2023-03-16T21:37:21.493Z,48.39
2023-03-16T21:40:21.429Z,48.43
2023-03-16T21:43:04.866Z,49.39
2023-03-16T21:45:49.574Z,49.85
2023-03-16T21:48:41.714Z,50.13
2023-03-16T21:51:33.165Z,49.73
2023-03-16T21:54:17.958Z,49.75
2023-03-16T21:57:01.429Z,51.29
2023-03-16T21:59:44.865Z,51.41
2023-03-16T22:02:28.485Z,51.29
2023-03-16T22:05:36.472Z,51.86
2023-03-16T22:08:30.788Z,52.53
2023-03-16T22:11:18.740Z,51.97
2023-03-16T22:14:02.205Z,52.49
2023-03-16T22:16:45.993Z,52.13
2023-03-16T22:19:29.462Z,52.20
2023-03-16T22:22:17.906Z,53.14
2023-03-16T22:25:12.780Z,52.53
2023-03-16T22:27:56.575Z,51.71
2023-03-16T22:30:41.839Z,52.61
2023-03-16T22:33:31.844Z,52.86
2023-03-16T22:36:19.987Z,53.38
2023-03-16T22:39:09.091Z,53.20
2023-03-16T22:41:52.626Z,54.12
2023-03-16T22:44:38.663Z,53.35
2023-03-16T22:47:26.413Z,53.86
2023-03-16T22:50:15.614Z,53.74
2023-03-16T22:53:05.859Z,53.30
2023-03-16T22:55:53.021Z,53.99
2023-03-16T22:58:48.585Z,53.65
2023-03-16T23:01:37.653Z,53.93
2023-03-16T23:04:30.040Z,54.08
2023-03-16T23:07:15.033Z,54.12
2023-03-16T23:09:58.532Z,54.31
2023-03-16T23:12:42.701Z,54.88
2023-03-16T23:15:30.509Z,54.85
2023-03-16T23:18:16.954Z,54.66
2023-03-16T23:21:00.571Z,54.67
2023-03-16T23:23:56.990Z,55.50
2023-03-16T23:26:46.111Z,55.90
2023-03-16T23:29:30.263Z,55.75
2023-03-16T23:32:17.055Z,55.47
2023-03-16T23:35:00.642Z,55.12
2023-03-16T23:37:44.280Z,54.75
2023-03-16T23:40:30.119Z,55.30
2023-03-16T23:43:13.806Z,55.94
2023-03-16T23:45:57.544Z,55.73
2023-03-16T23:48:44.856Z,55.34
2023-03-16T23:51:34.997Z,56.43
2023-03-16T23:54:29.860Z,56.31
2023-03-16T23:57:13.347Z,56.16
2023-03-16T23:59:57.026Z,55.88
